sensor_id;sensor_type;location;lat;lon;timestamp;pressure;altitude;pressure_sealevel;temperature;humidity
8298;BME280;4187;42.778;23.242;2023-08-31T00:00:42;94776.22;;;17.98;100.00
8298;BME280;4187;42.778;23.242;2023-08-31T00:03:09;94767.81;;;18.01;100.00
8298;BME280;4187;42.778;23.242;2023-08-31T00:05:37;94770.72;;;18.00;100.00
8298;BME280;4187;42.778;23.242;2023-08-31T00:08:05;94757.13;;;17.88;100.00
8298;BME280;4187;42.778;23.242;2023-08-31T00:10:33;94751.38;;;17.91;100.00
8298;BME280;4187;42.778;23.242;2023-08-31T00:13:02;94777.09;;;18.12;100.00
8298;BME280;4187;42.778;23.242;2023-08-31T00:15:29;94772.38;;;18.14;100.00
8298;BME280;4187;42.778;23.242;2023-08-31T00:17:58;94771.94;;;18.17;100.00
8298;BME280;4187;42.778;23.242;2023-08-31T00:20:25;94766.84;;;18.22;100.00
8298;BME280;4187;42.778;23.242;2023-08-31T00:22:51;94775.47;;;18.24;100.00
8298;BME280;4187;42.778;23.242;2023-08-31T00:25:18;94770.34;;;18.29;100.00
8298;BME280;4187;42.778;23.242;2023-08-31T00:27:44;94775.69;;;18.35;100.00
8298;BME280;4187;42.778;23.242;2023-08-31T00:30:15;94776.31;;;18.37;100.00
8298;BME280;4187;42.778;23.242;2023-08-31T00:32:42;94764.19;;;18.35;100.00
8298;BME280;4187;42.778;23.242;2023-08-31T00:35:09;94790.50;;;18.38;100.00
8298;BME280;4187;42.778;23.242;2023-08-31T00:37:35;94786.97;;;18.31;100.00
8298;BME280;4187;42.778;23.242;2023-08-31T00:40:03;94788.63;;;18.25;100.00
8298;BME280;4187;42.778;23.242;2023-08-31T00:42:32;94804.63;;;18.25;100.00
8298;BME280;4187;42.778;23.242;2023-08-31T00:44:59;94801.97;;;18.19;100.00
8298;BME280;4187;42.778;23.242;2023-08-31T00:47:27;94790.03;;;18.08;100.00
8298;BME280;4187;42.778;23.242;2023-08-31T00:49:54;94801.72;;;18.01;100.00
8298;BME280;4187;42.778;23.242;2023-08-31T00:52:21;94794.53;;;17.95;100.00
8298;BME280;4187;42.778;23.242;2023-08-31T00:54:51;94790.16;;;17.87;100.00
8298;BME280;4187;42.778;23.242;2023-08-31T00:57:19;94775.63;;;17.89;100.00
8298;BME280;4187;42.778;23.242;2023-08-31T00:59:46;94784.47;;;17.97;100.00
8298;BME280;4187;42.778;23.242;2023-08-31T01:02:17;94792.69;;;18.02;100.00
8298;BME280;4187;42.778;23.242;2023-08-31T01:04:55;94789.41;;;18.13;100.00
8298;BME280;4187;42.778;23.242;2023-08-31T01:07:32;94801.75;;;18.20;100.00
8298;BME280;4187;42.778;23.242;2023-08-31T01:10:06;94802.19;;;18.24;100.00
8298;BME280;4187;42.778;23.242;2023-08-31T01:12:48;94793.97;;;18.19;100.00
8298;BME280;4187;42.778;23.242;2023-08-31T01:15:17;94780.59;;;18.12;100.00
8298;BME280;4187;42.778;23.242;2023-08-31T01:17:47;94800.53;;;18.16;100.00
8298;BME280;4187;42.778;23.242;2023-08-31T01:20:21;94746.22;;;17.83;100.00
8298;BME280;4187;42.778;23.242;2023-08-31T01:22:57;94796.78;;;18.04;100.00
8298;BME280;4187;42.778;23.242;2023-08-31T01:25:27;94781.75;;;17.90;100.00
8298;BME280;4187;42.778;23.242;2023-08-31T01:27:56;94802.09;;;17.91;100.00
8298;BME280;4187;42.778;23.242;2023-08-31T01:30:24;94804.34;;;17.81;100.00
8298;BME280;4187;42.778;23.242;2023-08-31T01:32:51;94807.97;;;17.73;100.00
8298;BME280;4187;42.778;23.242;2023-08-31T01:35:18;94779.63;;;17.59;100.00
8298;BME280;4187;42.778;23.242;2023-08-31T01:37:49;94800.81;;;17.67;100.00
8298;BME280;4187;42.778;23.242;2023-08-31T01:40:20;94803.88;;;17.64;100.00
8298;BME280;4187;42.778;23.242;2023-08-31T01:42:50;94798.53;;;17.71;100.00
8298;BME280;4187;42.778;23.242;2023-08-31T01:45:19;94802.25;;;17.76;100.00
8298;BME280;4187;42.778;23.242;2023-08-31T01:47:47;94790.13;;;17.74;100.00
8298;BME280;4187;42.778;23.242;2023-08-31T01:50:14;94801.47;;;17.82;100.00
8298;BME280;4187;42.778;23.242;2023-08-31T01:52:41;94806.00;;;17.88;100.00
8298;BME280;4187;42.778;23.242;2023-08-31T01:55:08;94803.53;;;17.93;100.00
8298;BME280;4187;42.778;23.242;2023-08-31T01:57:34;94794.06;;;17.84;100.00
8298;BME280;4187;42.778;23.242;2023-08-31T02:00:03;94805.78;;;17.83;100.00
8298;BME280;4187;42.778;23.242;2023-08-31T02:02:31;94809.47;;;17.82;100.00
8298;BME280;4187;42.778;23.242;2023-08-31T02:04:58;94816.47;;;17.83;100.00
8298;BME280;4187;42.778;23.242;2023-08-31T02:07:27;94821.19;;;17.81;100.00
8298;BME280;4187;42.778;23.242;2023-08-31T02:09:53;94819.53;;;17.80;100.00
8298;BME280;4187;42.778;23.242;2023-08-31T02:12:20;94825.09;;;17.85;100.00
8298;BME280;4187;42.778;23.242;2023-08-31T02:14:47;94827.94;;;17.77;100.00
8298;BME280;4187;42.778;23.242;2023-08-31T02:17:16;94826.88;;;17.72;100.00
8298;BME280;4187;42.778;23.242;2023-08-31T02:19:43;94824.38;;;17.64;100.00
8298;BME280;4187;42.778;23.242;2023-08-31T02:22:10;94827.13;;;17.49;100.00
8298;BME280;4187;42.778;23.242;2023-08-31T02:24:37;94826.13;;;17.44;100.00
8298;BME280;4187;42.778;23.242;2023-08-31T02:27:04;94822.56;;;17.37;100.00
8298;BME280;4187;42.778;23.242;2023-08-31T02:29:31;94818.78;;;17.18;100.00
8298;BME280;4187;42.778;23.242;2023-08-31T02:31:58;94805.16;;;17.06;100.00
8298;BME280;4187;42.778;23.242;2023-08-31T02:34:26;94814.22;;;17.12;100.00
8298;BME280;4187;42.778;23.242;2023-08-31T02:36:53;94816.50;;;17.15;100.00
8298;BME280;4187;42.778;23.242;2023-08-31T02:39:20;94820.44;;;17.19;100.00
8298;BME280;4187;42.778;23.242;2023-08-31T02:41:47;94815.44;;;17.09;100.00
8298;BME280;4187;42.778;23.242;2023-08-31T02:44:14;94818.31;;;17.08;100.00
8298;BME280;4187;42.778;23.242;2023-08-31T02:46:40;94807.81;;;17.00;100.00
8298;BME280;4187;42.778;23.242;2023-08-31T02:49:07;94816.50;;;16.87;100.00
8298;BME280;4187;42.778;23.242;2023-08-31T02:51:35;94804.84;;;16.60;100.00
8298;BME280;4187;42.778;23.242;2023-08-31T02:54:03;94816.31;;;16.61;100.00
8298;BME280;4187;42.778;23.242;2023-08-31T02:56:30;94823.94;;;16.64;100.00
8298;BME280;4187;42.778;23.242;2023-08-31T02:58:57;94822.59;;;16.74;100.00
8298;BME280;4187;42.778;23.242;2023-08-31T03:01:23;94832.25;;;16.82;100.00
8298;BME280;4187;42.778;23.242;2023-08-31T03:03:50;94841.72;;;16.85;100.00
8298;BME280;4187;42.778;23.242;2023-08-31T03:06:17;94829.28;;;16.92;100.00
8298;BME280;4187;42.778;23.242;2023-08-31T03:08:45;94843.00;;;16.89;100.00
8298;BME280;4187;42.778;23.242;2023-08-31T03:11:12;94836.38;;;16.85;100.00
8298;BME280;4187;42.778;23.242;2023-08-31T03:13:41;94833.88;;;16.77;100.00
8298;BME280;4187;42.778;23.242;2023-08-31T03:16:08;94840.91;;;16.84;100.00
8298;BME280;4187;42.778;23.242;2023-08-31T03:18:35;94836.63;;;16.90;100.00
8298;BME280;4187;42.778;23.242;2023-08-31T03:21:02;94842.84;;;16.97;100.00
8298;BME280;4187;42.778;23.242;2023-08-31T03:23:29;94844.91;;;17.01;100.00
8298;BME280;4187;42.778;23.242;2023-08-31T03:25:58;94810.53;;;16.79;100.00
8298;BME280;4187;42.778;23.242;2023-08-31T03:28:24;94851.06;;;17.02;100.00
8298;BME280;4187;42.778;23.242;2023-08-31T03:30:55;94831.75;;;16.93;100.00
8298;BME280;4187;42.778;23.242;2023-08-31T03:33:21;94830.28;;;16.91;100.00
8298;BME280;4187;42.778;23.242;2023-08-31T03:35:49;94850.25;;;17.01;100.00
8298;BME280;4187;42.778;23.242;2023-08-31T03:38:15;94860.53;;;17.04;100.00
8298;BME280;4187;42.778;23.242;2023-08-31T03:40:42;94858.31;;;17.08;100.00
8298;BME280;4187;42.778;23.242;2023-08-31T03:43:11;94856.19;;;17.03;100.00
8298;BME280;4187;42.778;23.242;2023-08-31T03:45:37;94859.66;;;16.97;100.00
8298;BME280;4187;42.778;23.242;2023-08-31T03:48:04;94863.94;;;16.92;100.00
8298;BME280;4187;42.778;23.242;2023-08-31T03:50:31;94859.59;;;16.91;100.00
8298;BME280;4187;42.778;23.242;2023-08-31T03:52:58;94832.78;;;16.71;100.00
8298;BME280;4187;42.778;23.242;2023-08-31T03:55:25;94869.13;;;17.00;100.00
8298;BME280;4187;42.778;23.242;2023-08-31T03:57:52;94877.13;;;17.00;100.00
8298;BME280;4187;42.778;23.242;2023-08-31T04:00:20;94850.78;;;16.90;100.00
8298;BME280;4187;42.778;23.242;2023-08-31T04:02:47;94878.50;;;16.96;100.00
8298;BME280;4187;42.778;23.242;2023-08-31T04:05:14;94875.06;;;17.02;100.00
8298;BME280;4187;42.778;23.242;2023-08-31T04:07:41;94889.16;;;16.96;100.00
8298;BME280;4187;42.778;23.242;2023-08-31T04:10:08;94894.78;;;16.80;100.00
8298;BME280;4187;42.778;23.242;2023-08-31T04:12:35;94902.75;;;16.80;100.00
8298;BME280;4187;42.778;23.242;2023-08-31T04:15:02;94906.13;;;16.88;100.00
8298;BME280;4187;42.778;23.242;2023-08-31T04:17:32;94907.81;;;16.96;100.00
8298;BME280;4187;42.778;23.242;2023-08-31T04:19:59;94899.44;;;16.99;100.00
8298;BME280;4187;42.778;23.242;2023-08-31T04:22:31;94907.06;;;17.02;100.00
8298;BME280;4187;42.778;23.242;2023-08-31T04:24:58;94908.22;;;16.93;100.00
8298;BME280;4187;42.778;23.242;2023-08-31T04:27:25;94922.38;;;16.93;100.00
8298;BME280;4187;42.778;23.242;2023-08-31T04:29:53;94933.22;;;16.92;100.00
8298;BME280;4187;42.778;23.242;2023-08-31T04:32:20;94915.97;;;16.66;100.00
8298;BME280;4187;42.778;23.242;2023-08-31T04:34:48;94936.09;;;16.69;100.00
8298;BME280;4187;42.778;23.242;2023-08-31T04:37:15;94937.63;;;16.78;100.00
8298;BME280;4187;42.778;23.242;2023-08-31T04:39:41;94926.75;;;16.80;100.00
8298;BME280;4187;42.778;23.242;2023-08-31T04:42:08;94935.69;;;16.93;100.00
8298;BME280;4187;42.778;23.242;2023-08-31T04:44:35;94929.63;;;17.06;100.00
8298;BME280;4187;42.778;23.242;2023-08-31T04:47:02;94930.91;;;17.10;100.00
8298;BME280;4187;42.778;23.242;2023-08-31T04:49:29;94937.41;;;17.28;100.00
8298;BME280;4187;42.778;23.242;2023-08-31T04:51:57;94945.81;;;17.81;100.00
8298;BME280;4187;42.778;23.242;2023-08-31T04:54:24;94937.03;;;18.41;100.00
8298;BME280;4187;42.778;23.242;2023-08-31T04:56:51;94942.31;;;19.08;100.00
8298;BME280;4187;42.778;23.242;2023-08-31T04:59:18;94924.63;;;19.53;100.00
8298;BME280;4187;42.778;23.242;2023-08-31T05:01:45;94940.81;;;19.91;100.00
8298;BME280;4187;42.778;23.242;2023-08-31T05:04:12;94945.94;;;19.99;100.00
8298;BME280;4187;42.778;23.242;2023-08-31T05:06:39;94952.91;;;20.33;100.00
8298;BME280;4187;42.778;23.242;2023-08-31T05:09:07;94947.66;;;20.51;100.00
8298;BME280;4187;42.778;23.242;2023-08-31T05:11:35;94974.63;;;20.62;100.00
8298;BME280;4187;42.778;23.242;2023-08-31T05:14:02;94974.44;;;20.51;100.00
8298;BME280;4187;42.778;23.242;2023-08-31T05:16:29;94976.38;;;20.31;100.00
8298;BME280;4187;42.778;23.242;2023-08-31T05:18:55;94966.91;;;20.15;100.00
8298;BME280;4187;42.778;23.242;2023-08-31T05:21:24;94961.84;;;20.00;100.00
8298;BME280;4187;42.778;23.242;2023-08-31T05:23:51;94974.41;;;19.93;100.00
8298;BME280;4187;42.778;23.242;2023-08-31T05:26:19;94966.38;;;19.93;100.00
8298;BME280;4187;42.778;23.242;2023-08-31T05:28:46;94938.81;;;19.73;100.00
8298;BME280;4187;42.778;23.242;2023-08-31T05:31:13;94957.53;;;19.86;100.00
8298;BME280;4187;42.778;23.242;2023-08-31T05:33:40;94972.09;;;20.03;100.00
8298;BME280;4187;42.778;23.242;2023-08-31T05:36:07;94947.63;;;19.93;100.00
8298;BME280;4187;42.778;23.242;2023-08-31T05:38:34;94970.25;;;20.10;100.00
8298;BME280;4187;42.778;23.242;2023-08-31T05:41:05;94939.16;;;19.96;100.00
8298;BME280;4187;42.778;23.242;2023-08-31T05:43:35;94975.56;;;20.23;100.00
8298;BME280;4187;42.778;23.242;2023-08-31T05:46:02;94954.53;;;20.20;100.00
8298;BME280;4187;42.778;23.242;2023-08-31T05:48:29;94955.34;;;20.41;100.00
8298;BME280;4187;42.778;23.242;2023-08-31T05:50:56;94962.75;;;20.76;100.00
8298;BME280;4187;42.778;23.242;2023-08-31T05:53:24;94959.09;;;21.02;100.00
8298;BME280;4187;42.778;23.242;2023-08-31T05:55:50;94963.84;;;21.07;100.00
8298;BME280;4187;42.778;23.242;2023-08-31T05:58:17;94955.84;;;21.00;100.00
8298;BME280;4187;42.778;23.242;2023-08-31T06:00:46;94975.75;;;21.17;100.00
8298;BME280;4187;42.778;23.242;2023-08-31T06:03:12;94899.81;;;20.79;100.00
8298;BME280;4187;42.778;23.242;2023-08-31T06:05:52;94949.59;;;21.37;100.00
8298;BME280;4187;42.778;23.242;2023-08-31T06:08:18;94957.75;;;21.49;100.00
8298;BME280;4187;42.778;23.242;2023-08-31T06:10:45;94987.00;;;21.82;100.00
8298;BME280;4187;42.778;23.242;2023-08-31T06:13:12;94995.50;;;22.03;100.00
8298;BME280;4187;42.778;23.242;2023-08-31T06:15:41;94992.16;;;22.08;100.00
8298;BME280;4187;42.778;23.242;2023-08-31T06:18:11;95011.81;;;22.27;100.00
8298;BME280;4187;42.778;23.242;2023-08-31T06:20:38;95011.44;;;22.41;100.00
8298;BME280;4187;42.778;23.242;2023-08-31T06:23:05;95019.03;;;22.44;96.56
8298;BME280;4187;42.778;23.242;2023-08-31T06:25:32;95016.59;;;22.43;100.00
8298;BME280;4187;42.778;23.242;2023-08-31T06:27:58;95026.59;;;22.54;100.00
8298;BME280;4187;42.778;23.242;2023-08-31T06:30:25;95024.16;;;22.71;99.17
8298;BME280;4187;42.778;23.242;2023-08-31T06:32:52;95008.22;;;22.87;97.65
8298;BME280;4187;42.778;23.242;2023-08-31T06:35:20;95033.84;;;23.19;94.01
8298;BME280;4187;42.778;23.242;2023-08-31T06:37:47;95033.69;;;23.33;95.85
8298;BME280;4187;42.778;23.242;2023-08-31T06:40:16;95029.63;;;23.42;94.16
8298;BME280;4187;42.778;23.242;2023-08-31T06:42:42;94998.06;;;23.31;91.59
8298;BME280;4187;42.778;23.242;2023-08-31T06:45:10;95055.13;;;23.69;90.64
8298;BME280;4187;42.778;23.242;2023-08-31T06:47:36;95057.41;;;23.84;89.51
8298;BME280;4187;42.778;23.242;2023-08-31T06:50:05;95044.03;;;23.89;90.27
8298;BME280;4187;42.778;23.242;2023-08-31T06:52:34;95048.03;;;23.98;87.65
8298;BME280;4187;42.778;23.242;2023-08-31T06:55:02;95049.94;;;24.09;86.21
8298;BME280;4187;42.778;23.242;2023-08-31T06:57:29;95056.06;;;24.16;82.34
8298;BME280;4187;42.778;23.242;2023-08-31T06:59:56;95051.13;;;24.24;81.27
8298;BME280;4187;42.778;23.242;2023-08-31T07:02:25;95041.28;;;24.30;83.25
8298;BME280;4187;42.778;23.242;2023-08-31T07:04:53;95058.50;;;24.52;81.60
8298;BME280;4187;42.778;23.242;2023-08-31T07:07:19;95054.97;;;24.63;81.22
8298;BME280;4187;42.778;23.242;2023-08-31T07:09:48;95054.88;;;24.81;81.40
8298;BME280;4187;42.778;23.242;2023-08-31T07:12:15;95039.34;;;24.88;79.36
8298;BME280;4187;42.778;23.242;2023-08-31T07:14:41;95066.50;;;25.10;73.93
8298;BME280;4187;42.778;23.242;2023-08-31T07:17:09;95061.22;;;25.15;76.16
8298;BME280;4187;42.778;23.242;2023-08-31T07:19:36;95061.75;;;25.29;76.38
8298;BME280;4187;42.778;23.242;2023-08-31T07:22:03;95065.09;;;25.47;76.02
8298;BME280;4187;42.778;23.242;2023-08-31T07:24:31;95058.59;;;25.60;72.78
8298;BME280;4187;42.778;23.242;2023-08-31T07:27:01;95068.38;;;25.78;73.94
8298;BME280;4187;42.778;23.242;2023-08-31T07:29:28;95060.75;;;25.91;73.99
8298;BME280;4187;42.778;23.242;2023-08-31T07:31:55;95065.84;;;26.04;73.53
8298;BME280;4187;42.778;23.242;2023-08-31T07:34:22;95057.56;;;25.94;68.36
8298;BME280;4187;42.778;23.242;2023-08-31T07:36:49;95046.25;;;25.81;72.07
8298;BME280;4187;42.778;23.242;2023-08-31T07:39:16;95051.09;;;25.95;71.65
8298;BME280;4187;42.778;23.242;2023-08-31T07:41:43;95054.97;;;26.16;71.27
8298;BME280;4187;42.778;23.242;2023-08-31T07:44:11;95056.53;;;26.29;72.75
8298;BME280;4187;42.778;23.242;2023-08-31T07:46:38;95058.47;;;26.50;67.66
8298;BME280;4187;42.778;23.242;2023-08-31T07:49:05;95058.94;;;26.80;68.80
8298;BME280;4187;42.778;23.242;2023-08-31T07:51:32;95061.41;;;27.03;67.48
8298;BME280;4187;42.778;23.242;2023-08-31T07:54:00;95037.31;;;27.07;66.34
8298;BME280;4187;42.778;23.242;2023-08-31T07:56:28;95064.41;;;27.28;62.72
8298;BME280;4187;42.778;23.242;2023-08-31T07:58:55;95071.81;;;27.33;65.78
8298;BME280;4187;42.778;23.242;2023-08-31T08:01:24;95043.00;;;27.27;65.02
8298;BME280;4187;42.778;23.242;2023-08-31T08:03:50;95064.69;;;27.49;63.85
8298;BME280;4187;42.778;23.242;2023-08-31T08:06:17;95067.22;;;27.60;61.60
8298;BME280;4187;42.778;23.242;2023-08-31T08:08:44;95073.81;;;27.43;59.98
8298;BME280;4187;42.778;23.242;2023-08-31T08:11:11;95062.16;;;27.42;63.35
8298;BME280;4187;42.778;23.242;2023-08-31T08:13:38;95076.81;;;27.68;63.02
8298;BME280;4187;42.778;23.242;2023-08-31T08:16:05;95082.38;;;27.83;63.49
8298;BME280;4187;42.778;23.242;2023-08-31T08:18:34;95053.72;;;27.92;62.34
8298;BME280;4187;42.778;23.242;2023-08-31T08:21:01;95051.88;;;27.98;61.93
8298;BME280;4187;42.778;23.242;2023-08-31T08:23:28;95070.94;;;28.03;61.33
8298;BME280;4187;42.778;23.242;2023-08-31T08:25:55;95074.47;;;28.03;63.32
8298;BME280;4187;42.778;23.242;2023-08-31T08:28:24;95053.25;;;28.00;60.28
8298;BME280;4187;42.778;23.242;2023-08-31T08:30:51;95060.38;;;28.06;61.75
8298;BME280;4187;42.778;23.242;2023-08-31T08:33:18;95068.97;;;28.25;59.87
8298;BME280;4187;42.778;23.242;2023-08-31T08:35:46;95068.22;;;28.34;58.92
8298;BME280;4187;42.778;23.242;2023-08-31T08:38:13;95070.22;;;28.17;56.51
8298;BME280;4187;42.778;23.242;2023-08-31T08:40:40;95044.16;;;28.11;55.78
8298;BME280;4187;42.778;23.242;2023-08-31T08:43:07;95071.00;;;28.44;56.16
8298;BME280;4187;42.778;23.242;2023-08-31T08:45:37;95072.06;;;28.75;54.60
8298;BME280;4187;42.778;23.242;2023-08-31T08:48:07;95070.22;;;28.91;53.86
8298;BME280;4187;42.778;23.242;2023-08-31T08:50:36;95075.91;;;28.84;50.87
8298;BME280;4187;42.778;23.242;2023-08-31T08:53:05;95063.75;;;28.97;49.81
8298;BME280;4187;42.778;23.242;2023-08-31T08:55:32;95071.88;;;28.92;51.20
8298;BME280;4187;42.778;23.242;2023-08-31T08:57:59;95073.56;;;29.03;52.67
8298;BME280;4187;42.778;23.242;2023-08-31T09:00:26;95080.41;;;29.16;45.57
8298;BME280;4187;42.778;23.242;2023-08-31T09:05:39;95065.91;;;28.90;46.93
8298;BME280;4187;42.778;23.242;2023-08-31T09:08:08;95067.31;;;29.02;44.59
8298;BME280;4187;42.778;23.242;2023-08-31T09:10:39;95068.72;;;29.15;42.21
8298;BME280;4187;42.778;23.242;2023-08-31T09:13:07;95053.41;;;28.94;43.79
8298;BME280;4187;42.778;23.242;2023-08-31T09:15:42;95057.00;;;29.10;49.60
8298;BME280;4187;42.778;23.242;2023-08-31T09:18:15;95054.72;;;29.38;47.53
8298;BME280;4187;42.778;23.242;2023-08-31T09:20:43;95058.84;;;29.61;49.38
8298;BME280;4187;42.778;23.242;2023-08-31T09:23:12;95058.66;;;29.93;48.72
8298;BME280;4187;42.778;23.242;2023-08-31T09:25:41;95058.69;;;30.28;44.08
8298;BME280;4187;42.778;23.242;2023-08-31T09:28:09;95070.44;;;30.44;42.89
8298;BME280;4187;42.778;23.242;2023-08-31T09:30:36;95065.53;;;30.46;44.32
8298;BME280;4187;42.778;23.242;2023-08-31T09:33:04;95061.69;;;30.42;44.45
8298;BME280;4187;42.778;23.242;2023-08-31T09:35:32;95066.59;;;30.50;46.29
8298;BME280;4187;42.778;23.242;2023-08-31T09:37:58;95071.75;;;30.66;44.27
8298;BME280;4187;42.778;23.242;2023-08-31T09:40:29;95072.31;;;30.63;41.60
8298;BME280;4187;42.778;23.242;2023-08-31T09:42:55;95070.13;;;30.55;41.96
8298;BME280;4187;42.778;23.242;2023-08-31T09:45:26;95064.69;;;30.35;40.95
8298;BME280;4187;42.778;23.242;2023-08-31T09:47:56;95065.78;;;30.14;39.27
8298;BME280;4187;42.778;23.242;2023-08-31T09:50:23;95063.31;;;29.87;40.21
8298;BME280;4187;42.778;23.242;2023-08-31T09:52:54;95060.72;;;29.55;41.39
8298;BME280;4187;42.778;23.242;2023-08-31T09:55:24;95054.47;;;29.55;41.41
8298;BME280;4187;42.778;23.242;2023-08-31T09:57:56;95056.97;;;29.67;43.09
8298;BME280;4187;42.778;23.242;2023-08-31T10:00:24;95051.31;;;29.93;42.89
8298;BME280;4187;42.778;23.242;2023-08-31T10:02:53;95046.16;;;30.12;41.85
8298;BME280;4187;42.778;23.242;2023-08-31T10:05:21;95054.63;;;30.36;42.39
8298;BME280;4187;42.778;23.242;2023-08-31T10:07:48;95055.97;;;30.03;39.08
8298;BME280;4187;42.778;23.242;2023-08-31T10:10:15;95043.94;;;29.79;41.55
8298;BME280;4187;42.778;23.242;2023-08-31T10:12:44;95047.81;;;30.13;41.20
8298;BME280;4187;42.778;23.242;2023-08-31T10:15:14;95049.97;;;30.26;41.74
8298;BME280;4187;42.778;23.242;2023-08-31T10:17:42;95051.38;;;30.39;39.46
8298;BME280;4187;42.778;23.242;2023-08-31T10:20:10;95055.16;;;30.53;39.86
8298;BME280;4187;42.778;23.242;2023-08-31T10:22:38;95053.53;;;30.62;40.95
8298;BME280;4187;42.778;23.242;2023-08-31T10:25:06;95053.00;;;30.60;40.35
8298;BME280;4187;42.778;23.242;2023-08-31T10:27:37;95051.09;;;30.40;40.15
8298;BME280;4187;42.778;23.242;2023-08-31T10:30:24;95051.06;;;30.15;41.60
8298;BME280;4187;42.778;23.242;2023-08-31T10:33:19;95055.44;;;30.11;44.22
8298;BME280;4187;42.778;23.242;2023-08-31T10:35:50;95039.34;;;29.99;42.84
8298;BME280;4187;42.778;23.242;2023-08-31T10:38:24;95055.16;;;30.07;44.23
8298;BME280;4187;42.778;23.242;2023-08-31T10:41:03;95064.13;;;30.28;41.27
8298;BME280;4187;42.778;23.242;2023-08-31T10:43:44;95054.31;;;30.02;42.64
8298;BME280;4187;42.778;23.242;2023-08-31T10:46:24;95067.94;;;29.97;42.55
8298;BME280;4187;42.778;23.242;2023-08-31T10:48:53;95061.94;;;30.10;43.57
8298;BME280;4187;42.778;23.242;2023-08-31T10:51:28;95052.16;;;30.19;40.36
8298;BME280;4187;42.778;23.242;2023-08-31T10:54:10;95057.63;;;30.39;41.91
8298;BME280;4187;42.778;23.242;2023-08-31T10:59:45;95019.78;;;30.38;41.00
8298;BME280;4187;42.778;23.242;2023-08-31T11:02:33;95066.63;;;30.55;40.53
8298;BME280;4187;42.778;23.242;2023-08-31T11:05:01;95062.22;;;30.29;42.77
8298;BME280;4187;42.778;23.242;2023-08-31T11:07:30;95064.19;;;30.38;43.53
8298;BME280;4187;42.778;23.242;2023-08-31T11:10:11;95070.94;;;30.76;42.53
8298;BME280;4187;42.778;23.242;2023-08-31T11:12:39;95045.59;;;30.75;42.03
8298;BME280;4187;42.778;23.242;2023-08-31T11:15:07;95069.53;;;30.99;40.92
8298;BME280;4187;42.778;23.242;2023-08-31T11:17:36;95069.81;;;30.97;40.56
8298;BME280;4187;42.778;23.242;2023-08-31T11:20:06;95077.22;;;30.56;44.89
8298;BME280;4187;42.778;23.242;2023-08-31T11:22:38;95090.81;;;30.31;45.96
8298;BME280;4187;42.778;23.242;2023-08-31T11:25:07;95084.53;;;29.95;46.76
8298;BME280;4187;42.778;23.242;2023-08-31T11:27:34;95059.69;;;29.72;47.52
8298;BME280;4187;42.778;23.242;2023-08-31T11:30:03;95073.63;;;29.90;47.97
8298;BME280;4187;42.778;23.242;2023-08-31T11:32:30;95068.41;;;29.79;45.19
8298;BME280;4187;42.778;23.242;2023-08-31T11:34:58;95063.84;;;29.79;45.28
8298;BME280;4187;42.778;23.242;2023-08-31T11:37:26;95071.47;;;29.92;45.63
8298;BME280;4187;42.778;23.242;2023-08-31T11:39:53;95064.66;;;29.95;45.74
8298;BME280;4187;42.778;23.242;2023-08-31T11:42:21;95069.53;;;29.83;44.66
8298;BME280;4187;42.778;23.242;2023-08-31T11:44:50;95064.63;;;29.85;46.42
8298;BME280;4187;42.778;23.242;2023-08-31T11:47:17;95074.19;;;29.97;45.32
8298;BME280;4187;42.778;23.242;2023-08-31T11:49:45;95070.94;;;29.95;45.64
8298;BME280;4187;42.778;23.242;2023-08-31T11:52:15;95059.75;;;29.87;44.62
8298;BME280;4187;42.778;23.242;2023-08-31T11:54:43;95063.75;;;29.64;46.28
8298;BME280;4187;42.778;23.242;2023-08-31T11:57:11;95047.94;;;29.41;47.34
8298;BME280;4187;42.778;23.242;2023-08-31T11:59:40;95061.84;;;29.49;45.91
8298;BME280;4187;42.778;23.242;2023-08-31T12:02:08;95062.31;;;29.36;44.57
8298;BME280;4187;42.778;23.242;2023-08-31T12:04:41;95032.44;;;29.41;45.62
8298;BME280;4187;42.778;23.242;2023-08-31T12:07:09;95036.34;;;29.86;47.28
8298;BME280;4187;42.778;23.242;2023-08-31T12:09:40;95051.06;;;30.20;45.12
8298;BME280;4187;42.778;23.242;2023-08-31T12:12:10;95048.09;;;30.47;45.33
8298;BME280;4187;42.778;23.242;2023-08-31T12:14:39;95039.63;;;30.63;43.47
8298;BME280;4187;42.778;23.242;2023-08-31T12:17:08;95061.38;;;30.84;43.77
8298;BME280;4187;42.778;23.242;2023-08-31T12:19:38;95052.38;;;31.03;43.12
8298;BME280;4187;42.778;23.242;2023-08-31T12:22:06;95046.00;;;31.23;42.83
8298;BME280;4187;42.778;23.242;2023-08-31T12:24:39;95048.66;;;31.43;41.67
8298;BME280;4187;42.778;23.242;2023-08-31T12:27:06;95044.00;;;31.54;41.46
8298;BME280;4187;42.778;23.242;2023-08-31T12:29:34;95049.75;;;31.52;41.75
8298;BME280;4187;42.778;23.242;2023-08-31T12:32:01;95049.75;;;31.52;41.97
8298;BME280;4187;42.778;23.242;2023-08-31T12:34:28;95043.00;;;31.29;40.23
8298;BME280;4187;42.778;23.242;2023-08-31T12:36:56;95035.88;;;31.38;42.14
8298;BME280;4187;42.778;23.242;2023-08-31T12:39:25;95031.63;;;31.66;40.71
8298;BME280;4187;42.778;23.242;2023-08-31T12:41:53;95041.38;;;31.77;39.52
8298;BME280;4187;42.778;23.242;2023-08-31T12:44:21;95043.00;;;31.83;39.94
8298;BME280;4187;42.778;23.242;2023-08-31T12:46:51;95034.25;;;31.86;39.80
8298;BME280;4187;42.778;23.242;2023-08-31T12:49:18;95040.72;;;32.01;38.87
8298;BME280;4187;42.778;23.242;2023-08-31T12:51:47;95036.53;;;32.13;41.79
8298;BME280;4187;42.778;23.242;2023-08-31T12:54:16;95042.88;;;31.98;38.84
8298;BME280;4187;42.778;23.242;2023-08-31T12:56:43;95051.16;;;31.88;38.17
8298;BME280;4187;42.778;23.242;2023-08-31T12:59:11;95038.44;;;31.74;39.96
8298;BME280;4187;42.778;23.242;2023-08-31T13:01:38;95042.72;;;31.80;38.27
8298;BME280;4187;42.778;23.242;2023-08-31T13:04:05;95039.97;;;31.85;39.70
8298;BME280;4187;42.778;23.242;2023-08-31T13:06:31;95050.88;;;31.90;37.26
8298;BME280;4187;42.778;23.242;2023-08-31T13:08:58;95053.88;;;31.88;36.47
8298;BME280;4187;42.778;23.242;2023-08-31T13:11:25;95045.84;;;32.07;37.31
8298;BME280;4187;42.778;23.242;2023-08-31T13:13:52;95048.03;;;32.10;34.34
8298;BME280;4187;42.778;23.242;2023-08-31T13:16:20;95033.38;;;31.91;35.83